sensor_id;sensor_type;location;lat;lon;timestamp;P1;durP1;ratioP1;P2;durP2;ratioP2
4057;SDS011;2044;48.692;9.020;2022-11-12T00:01:34;139.10;;;18.23;;
4057;SDS011;2044;48.692;9.020;2022-11-12T00:04:01;112.13;;;19.07;;
4057;SDS011;2044;48.692;9.020;2022-11-12T00:06:28;105.67;;;20.03;;
4057;SDS011;2044;48.692;9.020;2022-11-12T00:08:54;151.27;;;17.57;;
4057;SDS011;2044;48.692;9.020;2022-11-12T00:11:21;135.03;;;20.87;;
4057;SDS011;2044;48.692;9.020;2022-11-12T00:13:48;176.93;;;22.33;;
4057;SDS011;2044;48.692;9.020;2022-11-12T00:16:14;227.30;;;27.23;;
4057;SDS011;2044;48.692;9.020;2022-11-12T00:18:42;220.20;;;27.93;;
4057;SDS011;2044;48.692;9.020;2022-11-12T00:21:09;73.87;;;15.23;;
4057;SDS011;2044;48.692;9.020;2022-11-12T00:23:36;87.30;;;17.70;;
4057;SDS011;2044;48.692;9.020;2022-11-12T00:26:02;209.30;;;22.10;;
4057;SDS011;2044;48.692;9.020;2022-11-12T00:28:29;178.73;;;20.07;;
4057;SDS011;2044;48.692;9.020;2022-11-12T00:30:57;101.80;;;15.80;;
4057;SDS011;2044;48.692;9.020;2022-11-12T00:33:24;143.13;;;31.63;;
4057;SDS011;2044;48.692;9.020;2022-11-12T00:35:52;178.77;;;25.77;;
4057;SDS011;2044;48.692;9.020;2022-11-12T00:38:18;307.87;;;37.33;;
4057;SDS011;2044;48.692;9.020;2022-11-12T00:40:45;123.57;;;16.70;;
4057;SDS011;2044;48.692;9.020;2022-11-12T00:43:12;197.63;;;19.40;;
4057;SDS011;2044;48.692;9.020;2022-11-12T00:45:38;117.00;;;17.67;;
4057;SDS011;2044;48.692;9.020;2022-11-12T00:48:07;155.20;;;18.93;;
4057;SDS011;2044;48.692;9.020;2022-11-12T00:50:34;126.20;;;18.30;;
4057;SDS011;2044;48.692;9.020;2022-11-12T00:53:02;131.23;;;17.50;;
4057;SDS011;2044;48.692;9.020;2022-11-12T00:55:28;139.13;;;19.07;;
4057;SDS011;2044;48.692;9.020;2022-11-12T00:57:56;200.60;;;19.20;;
4057;SDS011;2044;48.692;9.020;2022-11-12T01:00:24;178.47;;;22.83;;
4057;SDS011;2044;48.692;9.020;2022-11-12T01:02:51;131.20;;;19.30;;
4057;SDS011;2044;48.692;9.020;2022-11-12T01:05:18;63.63;;;12.77;;
4057;SDS011;2044;48.692;9.020;2022-11-12T01:07:45;66.47;;;12.80;;
4057;SDS011;2044;48.692;9.020;2022-11-12T01:10:14;104.63;;;15.10;;
4057;SDS011;2044;48.692;9.020;2022-11-12T01:12:41;60.93;;;13.40;;
4057;SDS011;2044;48.692;9.020;2022-11-12T01:15:08;122.67;;;15.13;;
4057;SDS011;2044;48.692;9.020;2022-11-12T01:17:35;88.40;;;15.53;;
4057;SDS011;2044;48.692;9.020;2022-11-12T01:20:02;39.07;;;12.33;;
4057;SDS011;2044;48.692;9.020;2022-11-12T01:22:29;33.83;;;10.40;;
4057;SDS011;2044;48.692;9.020;2022-11-12T01:24:55;55.83;;;12.87;;
4057;SDS011;2044;48.692;9.020;2022-11-12T01:27:23;79.83;;;14.90;;
4057;SDS011;2044;48.692;9.020;2022-11-12T01:29:50;107.63;;;15.33;;
4057;SDS011;2044;48.692;9.020;2022-11-12T01:32:17;112.20;;;15.80;;
4057;SDS011;2044;48.692;9.020;2022-11-12T01:34:44;54.87;;;12.90;;
4057;SDS011;2044;48.692;9.020;2022-11-12T01:37:10;82.53;;;13.07;;
4057;SDS011;2044;48.692;9.020;2022-11-12T01:39:37;187.33;;;20.50;;
4057;SDS011;2044;48.692;9.020;2022-11-12T01:42:04;173.17;;;17.60;;
4057;SDS011;2044;48.692;9.020;2022-11-12T01:44:32;169.60;;;18.40;;
4057;SDS011;2044;48.692;9.020;2022-11-12T01:47:02;237.53;;;19.70;;
4057;SDS011;2044;48.692;9.020;2022-11-12T01:49:33;228.80;;;20.30;;
4057;SDS011;2044;48.692;9.020;2022-11-12T01:52:06;254.83;;;20.43;;
4057;SDS011;2044;48.692;9.020;2022-11-12T01:54:37;159.10;;;15.87;;
4057;SDS011;2044;48.692;9.020;2022-11-12T01:57:06;138.83;;;14.80;;
4057;SDS011;2044;48.692;9.020;2022-11-12T01:59:37;187.00;;;20.80;;
4057;SDS011;2044;48.692;9.020;2022-11-12T02:02:07;263.00;;;21.23;;
4057;SDS011;2044;48.692;9.020;2022-11-12T02:04:35;121.50;;;14.20;;
4057;SDS011;2044;48.692;9.020;2022-11-12T02:07:04;213.80;;;18.80;;
4057;SDS011;2044;48.692;9.020;2022-11-12T02:09:32;151.00;;;16.67;;
4057;SDS011;2044;48.692;9.020;2022-11-12T02:12:00;206.43;;;17.30;;
4057;SDS011;2044;48.692;9.020;2022-11-12T02:14:27;104.73;;;14.00;;
4057;SDS011;2044;48.692;9.020;2022-11-12T02:16:55;174.87;;;17.10;;
4057;SDS011;2044;48.692;9.020;2022-11-12T02:19:23;162.80;;;18.17;;
4057;SDS011;2044;48.692;9.020;2022-11-12T02:21:51;61.40;;;14.80;;
4057;SDS011;2044;48.692;9.020;2022-11-12T02:24:30;118.70;;;17.20;;
4057;SDS011;2044;48.692;9.020;2022-11-12T02:26:57;71.30;;;14.67;;
4057;SDS011;2044;48.692;9.020;2022-11-12T02:29:25;84.50;;;12.77;;
4057;SDS011;2044;48.692;9.020;2022-11-12T02:31:51;68.80;;;13.53;;
4057;SDS011;2044;48.692;9.020;2022-11-12T02:34:18;100.17;;;16.37;;
4057;SDS011;2044;48.692;9.020;2022-11-12T02:36:45;51.60;;;11.50;;
4057;SDS011;2044;48.692;9.020;2022-11-12T02:39:13;62.23;;;12.67;;
4057;SDS011;2044;48.692;9.020;2022-11-12T02:41:39;46.00;;;11.10;;
4057;SDS011;2044;48.692;9.020;2022-11-12T02:44:06;57.43;;;13.60;;
4057;SDS011;2044;48.692;9.020;2022-11-12T02:46:33;60.80;;;12.17;;
4057;SDS011;2044;48.692;9.020;2022-11-12T02:49:00;33.40;;;9.87;;
4057;SDS011;2044;48.692;9.020;2022-11-12T02:51:26;35.03;;;10.00;;
4057;SDS011;2044;48.692;9.020;2022-11-12T02:53:53;68.80;;;12.80;;
4057;SDS011;2044;48.692;9.020;2022-11-12T02:56:21;67.10;;;15.17;;
4057;SDS011;2044;48.692;9.020;2022-11-12T02:58:48;79.00;;;12.60;;
4057;SDS011;2044;48.692;9.020;2022-11-12T03:01:14;63.60;;;14.43;;
4057;SDS011;2044;48.692;9.020;2022-11-12T03:03:41;77.20;;;13.23;;
4057;SDS011;2044;48.692;9.020;2022-11-12T03:06:08;82.00;;;14.53;;
4057;SDS011;2044;48.692;9.020;2022-11-12T03:08:34;65.97;;;15.03;;
4057;SDS011;2044;48.692;9.020;2022-11-12T03:11:05;58.77;;;12.30;;
4057;SDS011;2044;48.692;9.020;2022-11-12T03:13:34;60.50;;;13.03;;
4057;SDS011;2044;48.692;9.020;2022-11-12T03:16:01;42.40;;;12.97;;
4057;SDS011;2044;48.692;9.020;2022-11-12T03:18:28;40.50;;;13.00;;
4057;SDS011;2044;48.692;9.020;2022-11-12T03:20:55;43.70;;;13.53;;
4057;SDS011;2044;48.692;9.020;2022-11-12T03:23:22;32.27;;;13.87;;
4057;SDS011;2044;48.692;9.020;2022-11-12T03:25:49;26.17;;;11.73;;
4057;SDS011;2044;48.692;9.020;2022-11-12T03:28:15;41.17;;;13.83;;
4057;SDS011;2044;48.692;9.020;2022-11-12T03:30:44;53.20;;;13.77;;
4057;SDS011;2044;48.692;9.020;2022-11-12T03:33:11;58.67;;;12.60;;
4057;SDS011;2044;48.692;9.020;2022-11-12T03:35:39;75.37;;;13.70;;
4057;SDS011;2044;48.692;9.020;2022-11-12T03:38:06;28.33;;;10.33;;
4057;SDS011;2044;48.692;9.020;2022-11-12T03:40:33;22.33;;;9.60;;
4057;SDS011;2044;48.692;9.020;2022-11-12T03:43:00;27.10;;;10.33;;
4057;SDS011;2044;48.692;9.020;2022-11-12T03:45:27;22.30;;;9.73;;
4057;SDS011;2044;48.692;9.020;2022-11-12T03:47:55;19.20;;;9.93;;
4057;SDS011;2044;48.692;9.020;2022-11-12T03:50:24;22.40;;;9.43;;
4057;SDS011;2044;48.692;9.020;2022-11-12T03:52:54;18.93;;;9.70;;
4057;SDS011;2044;48.692;9.020;2022-11-12T03:55:24;17.23;;;8.53;;
4057;SDS011;2044;48.692;9.020;2022-11-12T03:57:52;18.47;;;9.10;;
4057;SDS011;2044;48.692;9.020;2022-11-12T04:00:20;14.17;;;8.30;;
4057;SDS011;2044;48.692;9.020;2022-11-12T04:02:48;19.77;;;10.17;;
4057;SDS011;2044;48.692;9.020;2022-11-12T04:05:16;19.87;;;10.07;;
4057;SDS011;2044;48.692;9.020;2022-11-12T04:08:02;18.60;;;8.80;;
4057;SDS011;2044;48.692;9.020;2022-11-12T04:10:48;21.03;;;9.90;;
4057;SDS011;2044;48.692;9.020;2022-11-12T04:13:15;21.80;;;10.57;;
4057;SDS011;2044;48.692;9.020;2022-11-12T04:15:55;19.50;;;10.13;;
4057;SDS011;2044;48.692;9.020;2022-11-12T04:18:41;21.83;;;9.53;;
4057;SDS011;2044;48.692;9.020;2022-11-12T04:21:29;21.47;;;9.70;;
4057;SDS011;2044;48.692;9.020;2022-11-12T04:24:15;21.80;;;9.83;;
4057;SDS011;2044;48.692;9.020;2022-11-12T04:27:01;18.10;;;8.87;;
4057;SDS011;2044;48.692;9.020;2022-11-12T04:29:28;18.00;;;10.50;;
4057;SDS011;2044;48.692;9.020;2022-11-12T04:32:12;18.30;;;9.70;;
4057;SDS011;2044;48.692;9.020;2022-11-12T04:34:39;16.60;;;9.43;;
4057;SDS011;2044;48.692;9.020;2022-11-12T04:37:07;18.90;;;8.87;;
4057;SDS011;2044;48.692;9.020;2022-11-12T04:39:34;19.30;;;9.80;;
4057;SDS011;2044;48.692;9.020;2022-11-12T04:42:01;19.10;;;9.23;;
4057;SDS011;2044;48.692;9.020;2022-11-12T04:44:46;15.80;;;8.87;;
4057;SDS011;2044;48.692;9.020;2022-11-12T04:47:25;20.40;;;9.47;;
4057;SDS011;2044;48.692;9.020;2022-11-12T04:49:53;13.67;;;8.33;;
4057;SDS011;2044;48.692;9.020;2022-11-12T04:52:21;15.43;;;8.90;;
4057;SDS011;2044;48.692;9.020;2022-11-12T04:54:48;18.10;;;9.77;;
4057;SDS011;2044;48.692;9.020;2022-11-12T04:57:15;15.90;;;9.10;;
4057;SDS011;2044;48.692;9.020;2022-11-12T04:59:42;15.93;;;9.17;;
4057;SDS011;2044;48.692;9.020;2022-11-12T05:02:09;24.33;;;11.57;;
4057;SDS011;2044;48.692;9.020;2022-11-12T05:04:35;21.67;;;10.90;;
4057;SDS011;2044;48.692;9.020;2022-11-12T05:07:02;23.77;;;10.77;;
4057;SDS011;2044;48.692;9.020;2022-11-12T05:09:31;18.90;;;10.07;;
4057;SDS011;2044;48.692;9.020;2022-11-12T05:11:57;23.67;;;11.40;;
4057;SDS011;2044;48.692;9.020;2022-11-12T05:14:24;21.40;;;9.90;;
4057;SDS011;2044;48.692;9.020;2022-11-12T05:16:51;21.60;;;10.80;;
4057;SDS011;2044;48.692;9.020;2022-11-12T05:19:18;23.87;;;12.57;;
4057;SDS011;2044;48.692;9.020;2022-11-12T05:21:44;23.50;;;12.37;;
4057;SDS011;2044;48.692;9.020;2022-11-12T05:24:31;25.33;;;11.50;;
4057;SDS011;2044;48.692;9.020;2022-11-12T05:27:00;24.10;;;10.97;;
4057;SDS011;2044;48.692;9.020;2022-11-12T05:29:27;22.97;;;11.30;;
4057;SDS011;2044;48.692;9.020;2022-11-12T05:31:54;24.20;;;11.23;;
4057;SDS011;2044;48.692;9.020;2022-11-12T05:34:21;21.23;;;10.10;;
4057;SDS011;2044;48.692;9.020;2022-11-12T05:36:48;22.33;;;10.53;;
4057;SDS011;2044;48.692;9.020;2022-11-12T05:39:14;18.97;;;11.03;;
4057;SDS011;2044;48.692;9.020;2022-11-12T05:41:43;28.47;;;11.07;;
4057;SDS011;2044;48.692;9.020;2022-11-12T05:44:09;20.73;;;10.63;;
4057;SDS011;2044;48.692;9.020;2022-11-12T05:46:36;22.03;;;10.90;;
4057;SDS011;2044;48.692;9.020;2022-11-12T05:49:03;20.47;;;10.30;;
4057;SDS011;2044;48.692;9.020;2022-11-12T05:51:30;25.07;;;11.60;;
4057;SDS011;2044;48.692;9.020;2022-11-12T05:53:56;25.17;;;11.30;;
4057;SDS011;2044;48.692;9.020;2022-11-12T05:56:23;21.77;;;11.30;;
4057;SDS011;2044;48.692;9.020;2022-11-12T05:58:51;23.70;;;11.40;;
4057;SDS011;2044;48.692;9.020;2022-11-12T06:01:18;19.93;;;10.70;;
4057;SDS011;2044;48.692;9.020;2022-11-12T06:03:45;22.30;;;9.97;;
4057;SDS011;2044;48.692;9.020;2022-11-12T06:06:12;22.47;;;10.67;;
4057;SDS011;2044;48.692;9.020;2022-11-12T06:08:39;19.03;;;10.30;;
4057;SDS011;2044;48.692;9.020;2022-11-12T06:11:06;25.27;;;13.50;;
4057;SDS011;2044;48.692;9.020;2022-11-12T06:13:32;26.13;;;14.67;;
4057;SDS011;2044;48.692;9.020;2022-11-12T06:16:00;32.97;;;15.20;;
4057;SDS011;2044;48.692;9.020;2022-11-12T06:18:27;30.13;;;13.83;;
4057;SDS011;2044;48.692;9.020;2022-11-12T06:20:59;33.00;;;14.67;;
4057;SDS011;2044;48.692;9.020;2022-11-12T06:23:46;27.87;;;14.50;;
4057;SDS011;2044;48.692;9.020;2022-11-12T06:26:13;28.20;;;14.33;;
4057;SDS011;2044;48.692;9.020;2022-11-12T06:28:40;30.43;;;15.00;;
4057;SDS011;2044;48.692;9.020;2022-11-12T06:31:08;35.17;;;16.23;;
4057;SDS011;2044;48.692;9.020;2022-11-12T06:33:35;32.97;;;15.50;;
4057;SDS011;2044;48.692;9.020;2022-11-12T06:36:02;27.00;;;13.63;;
4057;SDS011;2044;48.692;9.020;2022-11-12T06:38:31;29.73;;;13.87;;
4057;SDS011;2044;48.692;9.020;2022-11-12T06:40:59;26.13;;;12.17;;
4057;SDS011;2044;48.692;9.020;2022-11-12T06:43:26;29.67;;;16.23;;
4057;SDS011;2044;48.692;9.020;2022-11-12T06:45:57;30.90;;;14.40;;
4057;SDS011;2044;48.692;9.020;2022-11-12T06:48:26;26.33;;;12.87;;
4057;SDS011;2044;48.692;9.020;2022-11-12T06:50:52;29.70;;;12.23;;
4057;SDS011;2044;48.692;9.020;2022-11-12T06:53:19;22.60;;;13.20;;
4057;SDS011;2044;48.692;9.020;2022-11-12T06:55:46;22.80;;;11.83;;
4057;SDS011;2044;48.692;9.020;2022-11-12T06:58:13;30.27;;;14.27;;
4057;SDS011;2044;48.692;9.020;2022-11-12T07:00:39;33.50;;;14.33;;
4057;SDS011;2044;48.692;9.020;2022-11-12T07:03:06;26.87;;;12.90;;
4057;SDS011;2044;48.692;9.020;2022-11-12T07:05:35;32.83;;;13.90;;
4057;SDS011;2044;48.692;9.020;2022-11-12T07:08:03;27.17;;;13.87;;
4057;SDS011;2044;48.692;9.020;2022-11-12T07:10:30;30.33;;;15.40;;
4057;SDS011;2044;48.692;9.020;2022-11-12T07:12:57;20.40;;;12.90;;
4057;SDS011;2044;48.692;9.020;2022-11-12T07:15:23;274.20;;;39.20;;
4057;SDS011;2044;48.692;9.020;2022-11-12T07:17:50;29.90;;;14.10;;
4057;SDS011;2044;48.692;9.020;2022-11-12T07:20:17;28.17;;;12.50;;
4057;SDS011;2044;48.692;9.020;2022-11-12T07:22:45;26.13;;;13.47;;
4057;SDS011;2044;48.692;9.020;2022-11-12T07:25:12;23.80;;;12.40;;
4057;SDS011;2044;48.692;9.020;2022-11-12T07:27:39;22.70;;;12.13;;
4057;SDS011;2044;48.692;9.020;2022-11-12T07:30:06;22.03;;;11.67;;
4057;SDS011;2044;48.692;9.020;2022-11-12T07:32:33;23.67;;;13.00;;
4057;SDS011;2044;48.692;9.020;2022-11-12T07:35:00;18.83;;;12.07;;
4057;SDS011;2044;48.692;9.020;2022-11-12T07:37:27;19.07;;;12.50;;
4057;SDS011;2044;48.692;9.020;2022-11-12T07:39:55;19.30;;;11.43;;
4057;SDS011;2044;48.692;9.020;2022-11-12T07:42:22;14.43;;;9.50;;
4057;SDS011;2044;48.692;9.020;2022-11-12T07:44:48;15.00;;;9.20;;
4057;SDS011;2044;48.692;9.020;2022-11-12T07:47:15;12.57;;;8.60;;
4057;SDS011;2044;48.692;9.020;2022-11-12T07:49:42;14.67;;;9.67;;
4057;SDS011;2044;48.692;9.020;2022-11-12T07:52:09;12.60;;;8.80;;
4057;SDS011;2044;48.692;9.020;2022-11-12T07:54:35;15.57;;;10.07;;
4057;SDS011;2044;48.692;9.020;2022-11-12T07:57:03;14.53;;;9.60;;
4057;SDS011;2044;48.692;9.020;2022-11-12T07:59:30;15.17;;;9.67;;
4057;SDS011;2044;48.692;9.020;2022-11-12T08:01:57;16.60;;;9.90;;
4057;SDS011;2044;48.692;9.020;2022-11-12T08:04:24;14.80;;;8.80;;
4057;SDS011;2044;48.692;9.020;2022-11-12T08:06:50;12.73;;;9.00;;
4057;SDS011;2044;48.692;9.020;2022-11-12T08:09:17;12.83;;;8.53;;
4057;SDS011;2044;48.692;9.020;2022-11-12T08:11:44;12.47;;;8.47;;
4057;SDS011;2044;48.692;9.020;2022-11-12T08:14:12;11.77;;;8.00;;
4057;SDS011;2044;48.692;9.020;2022-11-12T08:16:39;11.57;;;7.83;;
4057;SDS011;2044;48.692;9.020;2022-11-12T08:19:06;9.83;;;7.27;;
4057;SDS011;2044;48.692;9.020;2022-11-12T08:21:32;11.30;;;7.87;;
4057;SDS011;2044;48.692;9.020;2022-11-12T08:24:00;7.27;;;6.03;;
4057;SDS011;2044;48.692;9.020;2022-11-12T08:26:26;7.10;;;5.10;;
4057;SDS011;2044;48.692;9.020;2022-11-12T08:28:53;8.40;;;5.20;;
4057;SDS011;2044;48.692;9.020;2022-11-12T08:31:21;4.87;;;4.33;;
4057;SDS011;2044;48.692;9.020;2022-11-12T08:33:48;5.50;;;4.63;;
4057;SDS011;2044;48.692;9.020;2022-11-12T08:36:16;4.30;;;3.90;;
4057;SDS011;2044;48.692;9.020;2022-11-12T08:38:43;4.80;;;4.30;;
4057;SDS011;2044;48.692;9.020;2022-11-12T08:41:10;4.30;;;3.90;;
4057;SDS011;2044;48.692;9.020;2022-11-12T08:43:38;4.50;;;4.07;;
4057;SDS011;2044;48.692;9.020;2022-11-12T08:46:06;4.20;;;3.80;;
4057;SDS011;2044;48.692;9.020;2022-11-12T08:48:34;4.73;;;4.23;;
4057;SDS011;2044;48.692;9.020;2022-11-12T08:51:01;4.90;;;3.70;;
4057;SDS011;2044;48.692;9.020;2022-11-12T08:53:29;4.77;;;4.07;;
4057;SDS011;2044;48.692;9.020;2022-11-12T08:55:56;5.33;;;4.13;;
4057;SDS011;2044;48.692;9.020;2022-11-12T08:58:23;4.10;;;3.43;;
4057;SDS011;2044;48.692;9.020;2022-11-12T09:00:51;4.03;;;3.63;;
4057;SDS011;2044;48.692;9.020;2022-11-12T09:03:20;4.57;;;3.87;;
4057;SDS011;2044;48.692;9.020;2022-11-12T09:05:50;4.20;;;3.80;;
4057;SDS011;2044;48.692;9.020;2022-11-12T09:08:18;3.57;;;3.10;;
4057;SDS011;2044;48.692;9.020;2022-11-12T09:10:46;3.83;;;3.40;;
4057;SDS011;2044;48.692;9.020;2022-11-12T09:13:13;3.70;;;3.40;;
4057;SDS011;2044;48.692;9.020;2022-11-12T09:15:41;3.67;;;2.90;;
4057;SDS011;2044;48.692;9.020;2022-11-12T09:18:10;4.80;;;2.93;;
4057;SDS011;2044;48.692;9.020;2022-11-12T09:20:38;3.30;;;3.10;;
4057;SDS011;2044;48.692;9.020;2022-11-12T09:23:07;3.57;;;3.37;;
4057;SDS011;2044;48.692;9.020;2022-11-12T09:25:34;3.67;;;3.37;;
4057;SDS011;2044;48.692;9.020;2022-11-12T09:28:05;3.90;;;3.50;;
4057;SDS011;2044;48.692;9.020;2022-11-12T09:30:33;3.70;;;3.40;;
4057;SDS011;2044;48.692;9.020;2022-11-12T09:33:00;4.00;;;3.70;;
4057;SDS011;2044;48.692;9.020;2022-11-12T09:35:27;2.93;;;2.73;;
4057;SDS011;2044;48.692;9.020;2022-11-12T09:37:54;2.93;;;2.70;;
4057;SDS011;2044;48.692;9.020;2022-11-12T09:40:25;3.07;;;2.87;;
4057;SDS011;2044;48.692;9.020;2022-11-12T09:43:10;2.87;;;2.67;;
4057;SDS011;2044;48.692;9.020;2022-11-12T09:45:44;3.00;;;2.80;;
4057;SDS011;2044;48.692;9.020;2022-11-12T09:48:13;3.80;;;3.50;;
4057;SDS011;2044;48.692;9.020;2022-11-12T09:50:47;2.83;;;2.63;;
4057;SDS011;2044;48.692;9.020;2022-11-12T09:53:20;4.70;;;3.20;;
4057;SDS011;2044;48.692;9.020;2022-11-12T09:55:54;3.13;;;2.93;;
4057;SDS011;2044;48.692;9.020;2022-11-12T09:58:21;3.80;;;3.50;;
4057;SDS011;2044;48.692;9.020;2022-11-12T10:00:51;3.03;;;2.83;;
4057;SDS011;2044;48.692;9.020;2022-11-12T10:03:23;3.30;;;3.10;;
4057;SDS011;2044;48.692;9.020;2022-11-12T10:05:58;5.03;;;4.50;;
4057;SDS011;2044;48.692;9.020;2022-11-12T10:08:33;3.63;;;3.43;;
4057;SDS011;2044;48.692;9.020;2022-11-12T10:11:09;3.37;;;3.13;;
4057;SDS011;2044;48.692;9.020;2022-11-12T10:13:55;3.37;;;3.17;;
4057;SDS011;2044;48.692;9.020;2022-11-12T10:16:38;3.97;;;3.60;;
4057;SDS011;2044;48.692;9.020;2022-11-12T10:19:24;4.20;;;3.80;;
4057;SDS011;2044;48.692;9.020;2022-11-12T10:22:01;3.77;;;3.47;;
4057;SDS011;2044;48.692;9.020;2022-11-12T10:24:37;3.60;;;3.30;;
4057;SDS011;2044;48.692;9.020;2022-11-12T10:27:11;4.00;;;3.60;;
4057;SDS011;2044;48.692;9.020;2022-11-12T10:29:42;3.87;;;3.67;;
4057;SDS011;2044;48.692;9.020;2022-11-12T10:32:14;3.10;;;3.00;;
4057;SDS011;2044;48.692;9.020;2022-11-12T10:34:41;3.97;;;3.43;;
4057;SDS011;2044;48.692;9.020;2022-11-12T10:37:10;3.60;;;3.40;;
4057;SDS011;2044;48.692;9.020;2022-11-12T10:39:40;3.87;;;3.57;;
4057;SDS011;2044;48.692;9.020;2022-11-12T10:42:09;4.53;;;4.23;;
4057;SDS011;2044;48.692;9.020;2022-11-12T10:44:39;4.50;;;4.13;;
4057;SDS011;2044;48.692;9.020;2022-11-12T10:47:24;3.90;;;3.70;;
4057;SDS011;2044;48.692;9.020;2022-11-12T10:50:04;4.27;;;4.07;;
4057;SDS011;2044;48.692;9.020;2022-11-12T10:52:37;4.70;;;4.20;;
4057;SDS011;2044;48.692;9.020;2022-11-12T10:55:05;4.40;;;4.10;;
4057;SDS011;2044;48.692;9.020;2022-11-12T10:57:41;4.90;;;4.50;;
4057;SDS011;2044;48.692;9.020;2022-11-12T11:00:14;4.17;;;3.93;;
4057;SDS011;2044;48.692;9.020;2022-11-12T11:02:45;4.57;;;4.37;;
4057;SDS011;2044;48.692;9.020;2022-11-12T11:05:18;4.80;;;4.60;;
4057;SDS011;2044;48.692;9.020;2022-11-12T11:07:54;4.90;;;4.60;;
4057;SDS011;2044;48.692;9.020;2022-11-12T11:10:22;5.40;;;5.10;;
4057;SDS011;2044;48.692;9.020;2022-11-12T11:15:46;6.53;;;6.23;;
4057;SDS011;2044;48.692;9.020;2022-11-12T11:18:24;7.00;;;6.60;;
4057;SDS011;2044;48.692;9.020;2022-11-12T11:20:52;7.00;;;6.50;;
4057;SDS011;2044;48.692;9.020;2022-11-12T11:23:26;6.63;;;6.23;;
4057;SDS011;2044;48.692;9.020;2022-11-12T11:25:57;7.00;;;6.70;;
4057;SDS011;2044;48.692;9.020;2022-11-12T11:28:40;6.07;;;5.67;;
4057;SDS011;2044;48.692;9.020;2022-11-12T11:31:17;7.00;;;6.70;;
4057;SDS011;2044;48.692;9.020;2022-11-12T11:33:55;6.90;;;6.50;;
4057;SDS011;2044;48.692;9.020;2022-11-12T11:36:27;6.70;;;6.30;;
4057;SDS011;2044;48.692;9.020;2022-11-12T11:39:05;7.00;;;6.50;;
4057;SDS011;2044;48.692;9.020;2022-11-12T11:41:46;7.70;;;7.30;;
4057;SDS011;2044;48.692;9.020;2022-11-12T11:44:27;7.60;;;7.10;;
4057;SDS011;2044;48.692;9.020;2022-11-12T11:47:03;7.53;;;6.97;;
4057;SDS011;2044;48.692;9.020;2022-11-12T11:49:45;7.70;;;7.30;;
4057;SDS011;2044;48.692;9.020;2022-11-12T11:52:40;7.87;;;7.47;;
4057;SDS011;2044;48.692;9.020;2022-11-12T11:55:19;7.93;;;7.53;;
4057;SDS011;2044;48.692;9.020;2022-11-12T11:57:58;8.10;;;7.60;;
4057;SDS011;2044;48.692;9.020;2022-11-12T12:00:36;8.70;;;8.20;;
4057;SDS011;2044;48.692;9.020;2022-11-12T12:03:18;8.20;;;7.80;;
4057;SDS011;2044;48.692;9.020;2022-11-12T12:05:50;9.03;;;8.53;;
4057;SDS011;2044;48.692;9.020;2022-11-12T12:08:33;9.80;;;9.00;;
4057;SDS011;2044;48.692;9.020;2022-11-12T12:11:11;8.77;;;8.27;;
4057;SDS011;2044;48.692;9.020;2022-11-12T12:13:46;9.33;;;8.83;;
4057;SDS011;2044;48.692;9.020;2022-11-12T12:16:34;9.33;;;8.83;;
4057;SDS011;2044;48.692;9.020;2022-11-12T12:19:16;9.60;;;9.10;;
4057;SDS011;2044;48.692;9.020;2022-11-12T12:21:53;10.00;;;9.50;;
4057;SDS011;2044;48.692;9.020;2022-11-12T12:24:22;10.10;;;9.60;;
4057;SDS011;2044;48.692;9.020;2022-11-12T12:26:53;9.20;;;8.77;;
4057;SDS011;2044;48.692;9.020;2022-11-12T12:29:23;9.50;;;8.80;;
4057;SDS011;2044;48.692;9.020;2022-11-12T12:31:58;9.40;;;8.73;;
4057;SDS011;2044;48.692;9.020;2022-11-12T12:34:30;9.00;;;8.60;;
4057;SDS011;2044;48.692;9.020;2022-11-12T12:37:01;9.37;;;8.67;;
4057;SDS011;2044;48.692;9.020;2022-11-12T12:39:35;8.60;;;8.10;;
4057;SDS011;2044;48.692;9.020;2022-11-12T12:42:11;8.50;;;8.10;;
4057;SDS011;2044;48.692;9.020;2022-11-12T12:44:43;8.87;;;8.27;;
4057;SDS011;2044;48.692;9.020;2022-11-12T12:47:33;7.90;;;7.40;;
4057;SDS011;2044;48.692;9.020;2022-11-12T12:50:03;7.97;;;7.57;;
4057;SDS011;2044;48.692;9.020;2022-11-12T12:55:38;7.27;;;6.87;;
4057;SDS011;2044;48.692;9.020;2022-11-12T12:58:22;6.87;;;6.57;;
4057;SDS011;2044;48.692;9.020;2022-11-12T13:00:52;6.87;;;6.57;;
4057;SDS011;2044;48.692;9.020;2022-11-12T13:06:23;6.27;;;5.87;;
4057;SDS011;2044;48.692;9.020;2022-11-12T13:08:53;6.10;;;5.50;;
4057;SDS011;2044;48.692;9.020;2022-11-12T13:11:45;7.60;;;5.00;;
4057;SDS011;2044;48.692;9.020;2022-11-12T13:23:10;6.83;;;6.23;;
4057;SDS011;2044;48.692;9.020;2022-11-12T13:25:52;5.83;;;5.43;;
4057;SDS011;2044;48.692;9.020;2022-11-12T13:35:19;9.43;;;8.33;;
4057;SDS011;2044;48.692;9.020;2022-11-12T13:37:54;7.37;;;6.77;;
4057;SDS011;2044;48.692;9.020;2022-11-12T13:40:36;8.50;;;7.60;;
4057;SDS011;2044;48.692;9.020;2022-11-12T13:43:08;6.90;;;6.40;;
4057;SDS011;2044;48.692;9.020;2022-11-12T13:45:43;6.70;;;6.10;;
4057;SDS011;2044;48.692;9.020;2022-11-12T13:48:14;8.70;;;6.83;;
4057;SDS011;2044;48.692;9.020;2022-11-12T13:50:50;7.10;;;6.50;;
4057;SDS011;2044;48.692;9.020;2022-11-12T13:53:21;7.10;;;6.40;;
4057;SDS011;2044;48.692;9.020;2022-11-12T13:55:51;6.57;;;6.00;;
4057;SDS011;2044;48.692;9.020;2022-11-12T13:58:23;6.70;;;6.20;;
4057;SDS011;2044;48.692;9.020;2022-11-12T14:00:52;7.10;;;6.50;;
4057;SDS011;2044;48.692;9.020;2022-11-12T14:03:20;12.40;;;11.50;;
4057;SDS011;2044;48.692;9.020;2022-11-12T14:05:49;13.97;;;13.10;;
4057;SDS011;2044;48.692;9.020;2022-11-12T14:08:29;14.33;;;13.40;;
4057;SDS011;2044;48.692;9.020;2022-11-12T14:14:05;12.77;;;11.97;;
4057;SDS011;2044;48.692;9.020;2022-11-12T14:16:45;13.13;;;12.27;;
4057;SDS011;2044;48.692;9.020;2022-11-12T14:19:29;12.90;;;12.00;;
4057;SDS011;2044;48.692;9.020;2022-11-12T14:22:17;11.80;;;10.80;;
4057;SDS011;2044;48.692;9.020;2022-11-12T14:24:47;11.50;;;10.70;;
4057;SDS011;2044;48.692;9.020;2022-11-12T14:27:32;11.70;;;10.70;;
4057;SDS011;2044;48.692;9.020;2022-11-12T14:30:04;11.63;;;10.63;;
4057;SDS011;2044;48.692;9.020;2022-11-12T14:32:39;10.80;;;9.93;;
4057;SDS011;2044;48.692;9.020;2022-11-12T14:35:17;10.27;;;9.37;;
4057;SDS011;2044;48.692;9.020;2022-11-12T14:38:02;11.40;;;9.57;;
4057;SDS011;2044;48.692;9.020;2022-11-12T14:40:34;10.33;;;9.43;;
4057;SDS011;2044;48.692;9.020;2022-11-12T14:43:02;9.67;;;8.87;;
4057;SDS011;2044;48.692;9.020;2022-11-12T14:45:29;9.17;;;8.37;;
4057;SDS011;2044;48.692;9.020;2022-11-12T14:47:56;9.37;;;8.50;;
4057;SDS011;2044;48.692;9.020;2022-11-12T14:50:24;10.30;;;8.73;;
4057;SDS011;2044;48.692;9.020;2022-11-12T14:52:54;9.33;;;8.43;;
4057;SDS011;2044;48.692;9.020;2022-11-12T14:55:27;8.97;;;8.07;;
4057;SDS011;2044;48.692;9.020;2022-11-12T14:57:58;8.90;;;7.67;;
4057;SDS011;2044;48.692;9.020;2022-11-12T15:00:35;9.00;;;8.03;;
4057;SDS011;2044;48.692;9.020;2022-11-12T15:03:04;9.40;;;8.40;;
4057;SDS011;2044;48.692;9.020;2022-11-12T15:05:32;8.80;;;7.90;;
4057;SDS011;2044;48.692;9.020;2022-11-12T15:08:02;8.83;;;7.73;;
4057;SDS011;2044;48.692;9.020;2022-11-12T15:10:32;11.80;;;8.47;;
4057;SDS011;2044;48.692;9.020;2022-11-12T15:13:02;7.90;;;7.13;;
4057;SDS011;2044;48.692;9.020;2022-11-12T15:15:32;8.30;;;7.30;;
4057;SDS011;2044;48.692;9.020;2022-11-12T15:18:02;8.60;;;7.57;;
4057;SDS011;2044;48.692;9.020;2022-11-12T15:20:31;9.07;;;7.47;;
4057;SDS011;2044;48.692;9.020;2022-11-12T15:22:58;8.07;;;7.27;;
4057;SDS011;2044;48.692;9.020;2022-11-12T15:25:25;9.90;;;7.50;;
4057;SDS011;2044;48.692;9.020;2022-11-12T15:27:54;8.43;;;7.50;;
4057;SDS011;2044;48.692;9.020;2022-11-12T15:30:23;11.23;;;6.67;;
4057;SDS011;2044;48.692;9.020;2022-11-12T15:33:05;8.73;;;6.40;;
4057;SDS011;2044;48.692;9.020;2022-11-12T15:35:36;8.90;;;6.73;;
4057;SDS011;2044;48.692;9.020;2022-11-12T15:38:09;7.70;;;6.20;;
4057;SDS011;2044;48.692;9.020;2022-11-12T15:40:40;9.30;;;6.87;;
4057;SDS011;2044;48.692;9.020;2022-11-12T15:43:15;8.40;;;6.97;;
4057;SDS011;2044;48.692;9.020;2022-11-12T15:45:49;8.53;;;7.27;;